Terminal Aerodrome Forecast
Issued by NWS Wilmington, OH

Current Version | Previous Version | Text Only | Print | Product List | Glossary Off
Versions: 1 2 3 4 5 6 7 8 9 10 11 12 13 14 15 16 17 18 19 20 21 22 23 24 25 26 27 28 29

000
FTUS41 KILN 151700
TAFCVG
TAF
KCVG 151724Z 1518/1624 22008KT P6SM FEW060 BKN120
     FM152200 25008KT P6SM VCSH SCT050 OVC100
     FM160200 35006KT P6SM VCSH BKN025
     FM160700 36008KT 5SM BR BKN008
     FM161300 01008KT P6SM BKN015
     FM161600 01008KT P6SM SCT025
     FM162100 36006KT P6SM FEW040=

USA.gov is the U.S. government's official web portal to all federal, state and local government web resources and services.